sensor_id;sensor_type;location;lat;lon;timestamp;P1;durP1;ratioP1;P2;durP2;ratioP2
64857;SDS011;51335;51.148;6.950;2024-02-04T00:00:00;5.97;;;4.90;;
64857;SDS011;51335;51.148;6.950;2024-02-04T00:00:30;7.70;;;4.28;;
64857;SDS011;51335;51.148;6.950;2024-02-04T00:01:00;5.35;;;4.50;;
64857;SDS011;51335;51.148;6.950;2024-02-04T00:01:30;6.75;;;4.13;;
64857;SDS011;51335;51.148;6.950;2024-02-04T00:02:01;4.85;;;4.20;;
64857;SDS011;51335;51.148;6.950;2024-02-04T00:02:31;6.68;;;3.90;;
64857;SDS011;51335;51.148;6.950;2024-02-04T00:03:01;4.10;;;3.70;;
64857;SDS011;51335;51.148;6.950;2024-02-04T00:03:31;4.80;;;4.10;;
64857;SDS011;51335;51.148;6.950;2024-02-04T00:04:02;5.47;;;4.00;;
64857;SDS011;51335;51.148;6.950;2024-02-04T00:04:32;4.32;;;3.67;;
64857;SDS011;51335;51.148;6.950;2024-02-04T00:05:03;4.88;;;3.85;;
64857;SDS011;51335;51.148;6.950;2024-02-04T00:05:33;4.05;;;3.58;;
64857;SDS011;51335;51.148;6.950;2024-02-04T00:06:03;7.07;;;3.78;;
64857;SDS011;51335;51.148;6.950;2024-02-04T00:06:34;3.80;;;3.40;;
64857;SDS011;51335;51.148;6.950;2024-02-04T00:07:04;4.00;;;3.15;;
64857;SDS011;51335;51.148;6.950;2024-02-04T00:07:34;4.68;;;3.25;;
64857;SDS011;51335;51.148;6.950;2024-02-04T00:08:04;5.68;;;3.28;;
64857;SDS011;51335;51.148;6.950;2024-02-04T00:08:35;4.90;;;3.20;;
64857;SDS011;51335;51.148;6.950;2024-02-04T00:09:05;3.92;;;3.20;;
64857;SDS011;51335;51.148;6.950;2024-02-04T00:09:35;3.90;;;3.13;;
64857;SDS011;51335;51.148;6.950;2024-02-04T00:10:06;3.72;;;3.08;;
64857;SDS011;51335;51.148;6.950;2024-02-04T00:10:36;3.80;;;3.10;;
64857;SDS011;51335;51.148;6.950;2024-02-04T00:11:06;3.63;;;2.85;;
64857;SDS011;51335;51.148;6.950;2024-02-04T00:11:37;3.83;;;2.60;;
64857;SDS011;51335;51.148;6.950;2024-02-04T00:12:07;4.18;;;2.70;;
64857;SDS011;51335;51.148;6.950;2024-02-04T00:12:38;4.15;;;2.60;;
64857;SDS011;51335;51.148;6.950;2024-02-04T00:13:08;3.75;;;2.42;;
64857;SDS011;51335;51.148;6.950;2024-02-04T00:13:38;4.40;;;2.33;;
64857;SDS011;51335;51.148;6.950;2024-02-04T00:14:09;2.67;;;2.30;;
64857;SDS011;51335;51.148;6.950;2024-02-04T00:14:39;5.10;;;2.47;;
64857;SDS011;51335;51.148;6.950;2024-02-04T00:15:09;3.17;;;2.30;;
64857;SDS011;51335;51.148;6.950;2024-02-04T00:15:40;3.30;;;2.10;;
64857;SDS011;51335;51.148;6.950;2024-02-04T00:16:10;3.05;;;2.08;;
64857;SDS011;51335;51.148;6.950;2024-02-04T00:16:40;2.58;;;2.13;;
64857;SDS011;51335;51.148;6.950;2024-02-04T00:17:10;2.17;;;1.98;;
64857;SDS011;51335;51.148;6.950;2024-02-04T00:17:41;4.47;;;2.50;;
64857;SDS011;51335;51.148;6.950;2024-02-04T00:18:11;2.65;;;2.03;;
64857;SDS011;51335;51.148;6.950;2024-02-04T00:18:41;2.10;;;1.88;;
64857;SDS011;51335;51.148;6.950;2024-02-04T00:19:11;1.75;;;1.60;;
64857;SDS011;51335;51.148;6.950;2024-02-04T00:19:42;2.22;;;1.88;;
64857;SDS011;51335;51.148;6.950;2024-02-04T00:20:12;3.53;;;1.65;;
64857;SDS011;51335;51.148;6.950;2024-02-04T00:20:43;2.15;;;1.70;;
64857;SDS011;51335;51.148;6.950;2024-02-04T00:21:13;2.10;;;1.70;;
64857;SDS011;51335;51.148;6.950;2024-02-04T00:21:43;2.33;;;1.60;;
64857;SDS011;51335;51.148;6.950;2024-02-04T00:22:13;3.10;;;1.80;;
64857;SDS011;51335;51.148;6.950;2024-02-04T00:22:44;1.77;;;1.50;;
64857;SDS011;51335;51.148;6.950;2024-02-04T00:23:14;2.55;;;1.45;;
64857;SDS011;51335;51.148;6.950;2024-02-04T00:23:44;1.73;;;1.30;;
64857;SDS011;51335;51.148;6.950;2024-02-04T00:24:14;3.03;;;1.50;;
64857;SDS011;51335;51.148;6.950;2024-02-04T00:24:45;1.20;;;1.10;;
64857;SDS011;51335;51.148;6.950;2024-02-04T00:25:15;1.80;;;1.30;;
64857;SDS011;51335;51.148;6.950;2024-02-04T00:25:45;1.70;;;1.38;;
64857;SDS011;51335;51.148;6.950;2024-02-04T00:26:16;2.13;;;1.17;;
64857;SDS011;51335;51.148;6.950;2024-02-04T00:26:46;1.30;;;1.10;;
64857;SDS011;51335;51.148;6.950;2024-02-04T00:27:16;1.35;;;1.10;;
64857;SDS011;51335;51.148;6.950;2024-02-04T00:27:47;2.95;;;1.40;;
64857;SDS011;51335;51.148;6.950;2024-02-04T00:28:17;2.20;;;1.00;;
64857;SDS011;51335;51.148;6.950;2024-02-04T00:28:47;2.17;;;1.23;;
64857;SDS011;51335;51.148;6.950;2024-02-04T00:29:17;1.40;;;1.02;;
64857;SDS011;51335;51.148;6.950;2024-02-04T00:29:48;1.67;;;1.08;;
64857;SDS011;51335;51.148;6.950;2024-02-04T00:30:18;2.13;;;1.10;;
64857;SDS011;51335;51.148;6.950;2024-02-04T00:30:48;1.73;;;1.20;;
64857;SDS011;51335;51.148;6.950;2024-02-04T00:31:18;1.25;;;0.90;;
64857;SDS011;51335;51.148;6.950;2024-02-04T00:31:49;1.48;;;1.05;;
64857;SDS011;51335;51.148;6.950;2024-02-04T00:32:19;1.33;;;1.10;;
64857;SDS011;51335;51.148;6.950;2024-02-04T00:32:49;1.63;;;1.20;;
64857;SDS011;51335;51.148;6.950;2024-02-04T00:33:20;1.73;;;1.00;;
64857;SDS011;51335;51.148;6.950;2024-02-04T00:33:50;1.27;;;1.00;;
64857;SDS011;51335;51.148;6.950;2024-02-04T00:34:20;2.72;;;1.10;;
64857;SDS011;51335;51.148;6.950;2024-02-04T00:34:50;2.38;;;1.20;;
64857;SDS011;51335;51.148;6.950;2024-02-04T00:35:21;1.38;;;1.00;;
64857;SDS011;51335;51.148;6.950;2024-02-04T00:35:51;2.45;;;1.13;;
64857;SDS011;51335;51.148;6.950;2024-02-04T00:36:21;1.52;;;0.95;;
64857;SDS011;51335;51.148;6.950;2024-02-04T00:36:52;3.08;;;1.20;;
64857;SDS011;51335;51.148;6.950;2024-02-04T00:37:22;1.15;;;1.00;;
64857;SDS011;51335;51.148;6.950;2024-02-04T00:37:52;2.28;;;1.00;;
64857;SDS011;51335;51.148;6.950;2024-02-04T00:38:22;1.30;;;1.20;;
64857;SDS011;51335;51.148;6.950;2024-02-04T00:38:53;1.50;;;1.10;;
64857;SDS011;51335;51.148;6.950;2024-02-04T00:39:23;2.80;;;1.23;;
64857;SDS011;51335;51.148;6.950;2024-02-04T00:39:53;1.70;;;1.20;;
64857;SDS011;51335;51.148;6.950;2024-02-04T00:40:23;2.55;;;1.25;;
64857;SDS011;51335;51.148;6.950;2024-02-04T00:40:53;1.50;;;1.13;;
64857;SDS011;51335;51.148;6.950;2024-02-04T00:41:24;3.17;;;1.23;;
64857;SDS011;51335;51.148;6.950;2024-02-04T00:41:54;1.48;;;1.23;;
64857;SDS011;51335;51.148;6.950;2024-02-04T00:42:25;2.50;;;1.30;;
64857;SDS011;51335;51.148;6.950;2024-02-04T00:42:55;2.55;;;1.33;;
64857;SDS011;51335;51.148;6.950;2024-02-04T00:43:25;1.38;;;1.27;;
64857;SDS011;51335;51.148;6.950;2024-02-04T00:43:55;3.47;;;1.52;;
64857;SDS011;51335;51.148;6.950;2024-02-04T00:44:26;5.00;;;1.92;;
64857;SDS011;51335;51.148;6.950;2024-02-04T00:44:56;2.30;;;2.10;;
64857;SDS011;51335;51.148;6.950;2024-02-04T00:45:26;2.30;;;2.08;;
64857;SDS011;51335;51.148;6.950;2024-02-04T00:45:56;2.70;;;2.28;;
64857;SDS011;51335;51.148;6.950;2024-02-04T00:46:27;2.67;;;2.28;;
64857;SDS011;51335;51.148;6.950;2024-02-04T00:46:57;2.50;;;2.30;;
64857;SDS011;51335;51.148;6.950;2024-02-04T00:47:27;4.18;;;2.42;;
64857;SDS011;51335;51.148;6.950;2024-02-04T00:47:58;3.90;;;2.80;;
64857;SDS011;51335;51.148;6.950;2024-02-04T00:48:28;3.55;;;3.00;;
64857;SDS011;51335;51.148;6.950;2024-02-04T00:48:58;4.05;;;3.20;;
64857;SDS011;51335;51.148;6.950;2024-02-04T00:49:28;4.82;;;3.10;;
64857;SDS011;51335;51.148;6.950;2024-02-04T00:49:59;3.55;;;2.92;;
64857;SDS011;51335;51.148;6.950;2024-02-04T00:50:29;4.80;;;3.08;;
64857;SDS011;51335;51.148;6.950;2024-02-04T00:50:59;3.15;;;2.85;;
64857;SDS011;51335;51.148;6.950;2024-02-04T00:51:29;4.22;;;3.47;;
64857;SDS011;51335;51.148;6.950;2024-02-04T00:52:00;3.80;;;3.20;;
64857;SDS011;51335;51.148;6.950;2024-02-04T00:52:30;3.40;;;3.00;;
64857;SDS011;51335;51.148;6.950;2024-02-04T00:53:00;3.88;;;3.40;;
64857;SDS011;51335;51.148;6.950;2024-02-04T00:53:31;3.95;;;3.55;;
64857;SDS011;51335;51.148;6.950;2024-02-04T00:54:01;3.67;;;3.35;;
64857;SDS011;51335;51.148;6.950;2024-02-04T00:54:31;3.72;;;3.22;;
64857;SDS011;51335;51.148;6.950;2024-02-04T00:55:01;5.60;;;3.47;;
64857;SDS011;51335;51.148;6.950;2024-02-04T00:55:32;4.95;;;3.75;;
64857;SDS011;51335;51.148;6.950;2024-02-04T00:56:02;4.80;;;3.97;;
64857;SDS011;51335;51.148;6.950;2024-02-04T00:56:34;4.72;;;3.72;;
64857;SDS011;51335;51.148;6.950;2024-02-04T00:57:04;5.15;;;3.97;;
64857;SDS011;51335;51.148;6.950;2024-02-04T00:57:34;4.45;;;4.00;;
64857;SDS011;51335;51.148;6.950;2024-02-04T00:58:04;4.97;;;4.40;;
64857;SDS011;51335;51.148;6.950;2024-02-04T00:58:35;4.97;;;4.43;;
64857;SDS011;51335;51.148;6.950;2024-02-04T00:59:05;4.70;;;4.18;;
64857;SDS011;51335;51.148;6.950;2024-02-04T00:59:35;4.78;;;4.03;;
64857;SDS011;51335;51.148;6.950;2024-02-04T01:00:06;5.68;;;4.47;;
64857;SDS011;51335;51.148;6.950;2024-02-04T01:00:37;5.72;;;4.60;;
64857;SDS011;51335;51.148;6.950;2024-02-04T01:01:07;5.47;;;4.35;;
64857;SDS011;51335;51.148;6.950;2024-02-04T01:01:41;5.18;;;4.50;;
64857;SDS011;51335;51.148;6.950;2024-02-04T01:02:11;6.97;;;5.13;;
64857;SDS011;51335;51.148;6.950;2024-02-04T01:02:42;6.20;;;4.80;;
64857;SDS011;51335;51.148;6.950;2024-02-04T01:03:12;5.93;;;4.90;;
64857;SDS011;51335;51.148;6.950;2024-02-04T01:03:42;5.53;;;4.80;;
64857;SDS011;51335;51.148;6.950;2024-02-04T01:04:12;6.53;;;4.70;;
64857;SDS011;51335;51.148;6.950;2024-02-04T01:04:43;6.15;;;4.70;;
64857;SDS011;51335;51.148;6.950;2024-02-04T01:05:13;5.43;;;4.93;;
64857;SDS011;51335;51.148;6.950;2024-02-04T01:05:43;6.25;;;4.82;;
64857;SDS011;51335;51.148;6.950;2024-02-04T01:06:13;6.13;;;5.32;;
64857;SDS011;51335;51.148;6.950;2024-02-04T01:06:44;6.30;;;5.38;;
64857;SDS011;51335;51.148;6.950;2024-02-04T01:07:14;7.28;;;5.30;;
64857;SDS011;51335;51.148;6.950;2024-02-04T01:07:44;7.18;;;4.75;;
64857;SDS011;51335;51.148;6.950;2024-02-04T01:08:14;6.30;;;5.50;;
64857;SDS011;51335;51.148;6.950;2024-02-04T01:08:45;7.35;;;5.60;;
64857;SDS011;51335;51.148;6.950;2024-02-04T01:09:15;6.28;;;5.25;;
64857;SDS011;51335;51.148;6.950;2024-02-04T01:09:45;6.03;;;5.43;;
64857;SDS011;51335;51.148;6.950;2024-02-04T01:10:15;6.22;;;5.07;;
64857;SDS011;51335;51.148;6.950;2024-02-04T01:10:46;7.15;;;5.18;;
64857;SDS011;51335;51.148;6.950;2024-02-04T01:11:16;5.85;;;5.00;;
64857;SDS011;51335;51.148;6.950;2024-02-04T01:11:46;7.45;;;5.40;;
64857;SDS011;51335;51.148;6.950;2024-02-04T01:12:16;5.55;;;4.75;;
64857;SDS011;51335;51.148;6.950;2024-02-04T01:12:47;5.95;;;5.00;;
64857;SDS011;51335;51.148;6.950;2024-02-04T01:13:17;5.60;;;4.82;;
64857;SDS011;51335;51.148;6.950;2024-02-04T01:13:47;6.15;;;5.25;;
64857;SDS011;51335;51.148;6.950;2024-02-04T01:14:18;5.55;;;4.82;;
64857;SDS011;51335;51.148;6.950;2024-02-04T01:14:48;6.53;;;5.20;;
64857;SDS011;51335;51.148;6.950;2024-02-04T01:15:19;6.10;;;5.00;;
64857;SDS011;51335;51.148;6.950;2024-02-04T01:15:49;7.03;;;5.10;;
64857;SDS011;51335;51.148;6.950;2024-02-04T01:16:19;7.97;;;5.40;;
64857;SDS011;51335;51.148;6.950;2024-02-04T01:16:49;5.68;;;5.07;;
64857;SDS011;51335;51.148;6.950;2024-02-04T01:17:20;6.13;;;5.32;;
64857;SDS011;51335;51.148;6.950;2024-02-04T01:17:50;6.20;;;4.97;;
64857;SDS011;51335;51.148;6.950;2024-02-04T01:18:20;6.40;;;5.20;;
64857;SDS011;51335;51.148;6.950;2024-02-04T01:18:50;6.80;;;4.97;;
64857;SDS011;51335;51.148;6.950;2024-02-04T01:19:21;5.55;;;5.05;;
64857;SDS011;51335;51.148;6.950;2024-02-04T01:19:51;6.22;;;4.90;;
64857;SDS011;51335;51.148;6.950;2024-02-04T01:20:21;5.35;;;4.65;;
64857;SDS011;51335;51.148;6.950;2024-02-04T01:20:51;7.00;;;4.80;;
64857;SDS011;51335;51.148;6.950;2024-02-04T01:21:22;5.55;;;4.80;;
64857;SDS011;51335;51.148;6.950;2024-02-04T01:21:52;5.50;;;4.93;;
64857;SDS011;51335;51.148;6.950;2024-02-04T01:22:22;5.95;;;4.68;;
64857;SDS011;51335;51.148;6.950;2024-02-04T01:22:52;5.05;;;4.55;;
64857;SDS011;51335;51.148;6.950;2024-02-04T01:23:23;5.78;;;4.55;;
64857;SDS011;51335;51.148;6.950;2024-02-04T01:23:53;5.50;;;4.90;;
64857;SDS011;51335;51.148;6.950;2024-02-04T01:24:23;5.00;;;4.50;;
64857;SDS011;51335;51.148;6.950;2024-02-04T01:24:53;5.18;;;4.55;;
64857;SDS011;51335;51.148;6.950;2024-02-04T01:25:24;5.22;;;4.70;;
64857;SDS011;51335;51.148;6.950;2024-02-04T01:25:54;5.05;;;4.30;;
64857;SDS011;51335;51.148;6.950;2024-02-04T01:26:24;5.95;;;4.57;;
64857;SDS011;51335;51.148;6.950;2024-02-04T01:26:55;6.38;;;4.90;;
64857;SDS011;51335;51.148;6.950;2024-02-04T01:27:25;5.75;;;4.70;;
64857;SDS011;51335;51.148;6.950;2024-02-04T01:27:55;5.05;;;4.47;;
64857;SDS011;51335;51.148;6.950;2024-02-04T01:28:25;4.43;;;4.03;;
64857;SDS011;51335;51.148;6.950;2024-02-04T01:28:55;6.30;;;4.60;;
64857;SDS011;51335;51.148;6.950;2024-02-04T01:29:26;6.50;;;4.78;;
64857;SDS011;51335;51.148;6.950;2024-02-04T01:29:56;5.60;;;4.40;;
64857;SDS011;51335;51.148;6.950;2024-02-04T01:30:26;5.00;;;4.50;;
64857;SDS011;51335;51.148;6.950;2024-02-04T01:30:56;5.15;;;4.40;;
64857;SDS011;51335;51.148;6.950;2024-02-04T01:31:27;7.75;;;4.63;;
64857;SDS011;51335;51.148;6.950;2024-02-04T01:31:57;8.20;;;4.72;;
64857;SDS011;51335;51.148;6.950;2024-02-04T01:32:27;5.85;;;4.30;;
64857;SDS011;51335;51.148;6.950;2024-02-04T01:32:57;6.45;;;4.95;;
64857;SDS011;51335;51.148;6.950;2024-02-04T01:33:28;8.77;;;4.40;;
64857;SDS011;51335;51.148;6.950;2024-02-04T01:33:58;6.95;;;4.47;;
64857;SDS011;51335;51.148;6.950;2024-02-04T01:34:28;5.05;;;4.25;;
64857;SDS011;51335;51.148;6.950;2024-02-04T01:34:58;5.75;;;4.13;;
64857;SDS011;51335;51.148;6.950;2024-02-04T01:35:29;5.70;;;4.60;;
64857;SDS011;51335;51.148;6.950;2024-02-04T01:35:59;6.80;;;4.50;;
64857;SDS011;51335;51.148;6.950;2024-02-04T01:36:29;4.72;;;3.75;;
64857;SDS011;51335;51.148;6.950;2024-02-04T01:36:59;5.30;;;4.20;;
64857;SDS011;51335;51.148;6.950;2024-02-04T01:37:30;5.32;;;4.28;;
64857;SDS011;51335;51.148;6.950;2024-02-04T01:38:00;5.00;;;4.00;;
64857;SDS011;51335;51.148;6.950;2024-02-04T01:38:30;4.95;;;4.45;;
64857;SDS011;51335;51.148;6.950;2024-02-04T01:39:00;7.00;;;4.47;;
64857;SDS011;51335;51.148;6.950;2024-02-04T01:39:31;5.63;;;4.60;;
64857;SDS011;51335;51.148;6.950;2024-02-04T01:40:01;7.85;;;4.10;;
64857;SDS011;51335;51.148;6.950;2024-02-04T01:40:31;6.00;;;4.40;;
64857;SDS011;51335;51.148;6.950;2024-02-04T01:41:01;5.72;;;4.40;;
64857;SDS011;51335;51.148;6.950;2024-02-04T01:41:32;5.10;;;4.40;;
64857;SDS011;51335;51.148;6.950;2024-02-04T01:42:02;5.90;;;4.60;;
64857;SDS011;51335;51.148;6.950;2024-02-04T01:42:33;5.63;;;4.63;;
64857;SDS011;51335;51.148;6.950;2024-02-04T01:43:03;5.72;;;4.28;;
64857;SDS011;51335;51.148;6.950;2024-02-04T01:43:33;5.63;;;4.28;;
64857;SDS011;51335;51.148;6.950;2024-02-04T01:44:04;4.60;;;4.18;;
64857;SDS011;51335;51.148;6.950;2024-02-04T01:44:34;4.70;;;3.90;;
64857;SDS011;51335;51.148;6.950;2024-02-04T01:45:04;5.68;;;4.28;;
64857;SDS011;51335;51.148;6.950;2024-02-04T01:45:35;5.00;;;4.30;;
64857;SDS011;51335;51.148;6.950;2024-02-04T01:46:05;4.88;;;4.20;;
64857;SDS011;51335;51.148;6.950;2024-02-04T01:46:35;5.38;;;4.53;;
64857;SDS011;51335;51.148;6.950;2024-02-04T01:47:05;7.40;;;4.47;;
64857;SDS011;51335;51.148;6.950;2024-02-04T01:47:36;5.88;;;4.60;;
64857;SDS011;51335;51.148;6.950;2024-02-04T01:48:06;5.63;;;4.63;;
64857;SDS011;51335;51.148;6.950;2024-02-04T01:48:37;5.70;;;4.50;;
64857;SDS011;51335;51.148;6.950;2024-02-04T01:49:07;5.65;;;4.45;;
64857;SDS011;51335;51.148;6.950;2024-02-04T01:49:38;4.72;;;4.07;;
64857;SDS011;51335;51.148;6.950;2024-02-04T01:50:08;6.43;;;4.18;;
64857;SDS011;51335;51.148;6.950;2024-02-04T01:50:39;5.18;;;4.20;;
64857;SDS011;51335;51.148;6.950;2024-02-04T01:51:09;7.55;;;4.50;;
64857;SDS011;51335;51.148;6.950;2024-02-04T01:51:40;6.10;;;4.28;;
64857;SDS011;51335;51.148;6.950;2024-02-04T01:52:10;4.80;;;4.30;;
64857;SDS011;51335;51.148;6.950;2024-02-04T01:52:42;6.43;;;4.30;;
64857;SDS011;51335;51.148;6.950;2024-02-04T01:53:14;5.13;;;4.20;;
64857;SDS011;51335;51.148;6.950;2024-02-04T01:53:45;4.72;;;3.72;;
64857;SDS011;51335;51.148;6.950;2024-02-04T01:54:16;6.22;;;4.00;;
64857;SDS011;51335;51.148;6.950;2024-02-04T01:54:46;4.72;;;4.20;;
64857;SDS011;51335;51.148;6.950;2024-02-04T01:55:17;6.28;;;4.13;;
64857;SDS011;51335;51.148;6.950;2024-02-04T01:55:48;6.55;;;3.95;;
64857;SDS011;51335;51.148;6.950;2024-02-04T01:56:19;5.25;;;3.75;;
64857;SDS011;51335;51.148;6.950;2024-02-04T01:56:49;4.20;;;3.67;;
64857;SDS011;51335;51.148;6.950;2024-02-04T01:57:20;4.30;;;3.80;;
64857;SDS011;51335;51.148;6.950;2024-02-04T01:57:50;4.90;;;4.10;;
64857;SDS011;51335;51.148;6.950;2024-02-04T01:58:20;4.50;;;3.53;;
64857;SDS011;51335;51.148;6.950;2024-02-04T01:58:51;4.07;;;3.47;;
64857;SDS011;51335;51.148;6.950;2024-02-04T01:59:23;6.03;;;3.80;;
64857;SDS011;51335;51.148;6.950;2024-02-04T01:59:54;5.00;;;4.05;;
64857;SDS011;51335;51.148;6.950;2024-02-04T02:00:26;4.53;;;3.75;;
64857;SDS011;51335;51.148;6.950;2024-02-04T02:00:56;5.72;;;3.80;;
64857;SDS011;51335;51.148;6.950;2024-02-04T02:01:27;5.10;;;3.83;;
64857;SDS011;51335;51.148;6.950;2024-02-04T02:02:00;4.07;;;3.65;;
64857;SDS011;51335;51.148;6.950;2024-02-04T02:02:31;4.00;;;3.60;;
64857;SDS011;51335;51.148;6.950;2024-02-04T02:03:04;5.68;;;4.05;;
64857;SDS011;51335;51.148;6.950;2024-02-04T02:03:36;6.60;;;3.83;;
64857;SDS011;51335;51.148;6.950;2024-02-04T02:04:08;4.85;;;3.72;;
64857;SDS011;51335;51.148;6.950;2024-02-04T02:04:38;4.45;;;3.65;;
64857;SDS011;51335;51.148;6.950;2024-02-04T02:05:08;5.50;;;3.78;;
64857;SDS011;51335;51.148;6.950;2024-02-04T02:05:39;4.25;;;3.70;;
64857;SDS011;51335;51.148;6.950;2024-02-04T02:06:10;7.05;;;3.95;;
64857;SDS011;51335;51.148;6.950;2024-02-04T02:06:40;5.10;;;3.90;;
64857;SDS011;51335;51.148;6.950;2024-02-04T02:07:11;5.75;;;3.90;;
64857;SDS011;51335;51.148;6.950;2024-02-04T02:07:42;4.65;;;3.67;;
64857;SDS011;51335;51.148;6.950;2024-02-04T02:08:12;4.15;;;3.75;;
64857;SDS011;51335;51.148;6.950;2024-02-04T02:08:42;4.82;;;3.67;;
64857;SDS011;51335;51.148;6.950;2024-02-04T02:09:14;4.55;;;3.75;;
64857;SDS011;51335;51.148;6.950;2024-02-04T02:09:44;5.20;;;3.80;;
64857;SDS011;51335;51.148;6.950;2024-02-04T02:10:15;5.40;;;3.67;;
64857;SDS011;51335;51.148;6.950;2024-02-04T02:10:45;5.85;;;3.80;;
64857;SDS011;51335;51.148;6.950;2024-02-04T02:11:27;4.63;;;3.70;;
64857;SDS011;51335;51.148;6.950;2024-02-04T02:12:08;5.95;;;3.60;;
64857;SDS011;51335;51.148;6.950;2024-02-04T02:12:48;6.10;;;3.97;;
64857;SDS011;51335;51.148;6.950;2024-02-04T02:13:23;4.05;;;3.60;;
64857;SDS011;51335;51.148;6.950;2024-02-04T02:13:57;4.43;;;3.67;;
64857;SDS011;51335;51.148;6.950;2024-02-04T02:14:33;4.25;;;3.80;;
64857;SDS011;51335;51.148;6.950;2024-02-04T02:15:10;5.10;;;3.75;;
64857;SDS011;51335;51.148;6.950;2024-02-04T02:15:48;6.28;;;3.90;;
64857;SDS011;51335;51.148;6.950;2024-02-04T02:16:21;6.93;;;3.70;;
64857;SDS011;51335;51.148;6.950;2024-02-04T02:16:55;4.68;;;3.88;;
64857;SDS011;51335;51.148;6.950;2024-02-04T02:17:35;6.43;;;3.80;;
64857;SDS011;51335;51.148;6.950;2024-02-04T02:18:31;4.70;;;3.72;;
64857;SDS011;51335;51.148;6.950;2024-02-04T02:20:54;4.43;;;3.70;;
64857;SDS011;51335;51.148;6.950;2024-02-04T02:22:28;6.03;;;3.85;;
64857;SDS011;51335;51.148;6.950;2024-02-04T02:24:45;6.13;;;3.80;;
64857;SDS011;51335;51.148;6.950;2024-02-04T02:25:18;5.38;;;3.90;;
64857;SDS011;51335;51.148;6.950;2024-02-04T02:25:49;6.88;;;3.85;;
64857;SDS011;51335;51.148;6.950;2024-02-04T02:26:21;4.43;;;3.85;;
64857;SDS011;51335;51.148;6.950;2024-02-04T02:26:52;5.95;;;4.20;;
64857;SDS011;51335;51.148;6.950;2024-02-04T02:27:23;5.05;;;4.28;;
64857;SDS011;51335;51.148;6.950;2024-02-04T02:27:53;5.47;;;4.38;;
64857;SDS011;51335;51.148;6.950;2024-02-04T02:28:24;5.15;;;4.38;;
64857;SDS011;51335;51.148;6.950;2024-02-04T02:28:54;8.07;;;4.53;;
64857;SDS011;51335;51.148;6.950;2024-02-04T02:29:24;6.40;;;4.32;;
64857;SDS011;51335;51.148;6.950;2024-02-04T02:29:54;4.95;;;4.30;;
64857;SDS011;51335;51.148;6.950;2024-02-04T02:30:25;7.35;;;4.75;;
64857;SDS011;51335;51.148;6.950;2024-02-04T02:30:55;5.97;;;4.78;;
64857;SDS011;51335;51.148;6.950;2024-02-04T02:31:25;6.18;;;4.45;;
64857;SDS011;51335;51.148;6.950;2024-02-04T02:31:55;6.50;;;4.93;;
64857;SDS011;51335;51.148;6.950;2024-02-04T02:32:26;5.90;;;4.88;;
64857;SDS011;51335;51.148;6.950;2024-02-04T02:32:56;5.57;;;4.70;;
64857;SDS011;51335;51.148;6.950;2024-02-04T02:33:27;7.25;;;4.60;;
64857;SDS011;51335;51.148;6.950;2024-02-04T02:33:57;5.28;;;4.78;;
64857;SDS011;51335;51.148;6.950;2024-02-04T02:34:28;5.95;;;4.75;;
64857;SDS011;51335;51.148;6.950;2024-02-04T02:34:59;5.90;;;4.90;;
64857;SDS011;51335;51.148;6.950;2024-02-04T02:35:29;6.00;;;4.90;;
64857;SDS011;51335;51.148;6.950;2024-02-04T02:35:59;6.95;;;5.00;;
64857;SDS011;51335;51.148;6.950;2024-02-04T02:36:34;6.32;;;4.72;;
64857;SDS011;51335;51.148;6.950;2024-02-04T02:38:56;5.95;;;4.60;;
64857;SDS011;51335;51.148;6.950;2024-02-04T02:39:31;6.20;;;4.72;;
64857;SDS011;51335;51.148;6.950;2024-02-04T02:40:54;5.25;;;4.63;;
64857;SDS011;51335;51.148;6.950;2024-02-04T02:41:28;5.43;;;4.50;;
64857;SDS011;51335;51.148;6.950;2024-02-04T02:42:01;5.63;;;4.80;;
64857;SDS011;51335;51.148;6.950;2024-02-04T02:42:34;5.95;;;4.57;;
64857;SDS011;51335;51.148;6.950;2024-02-04T02:43:06;5.80;;;4.60;;
64857;SDS011;51335;51.148;6.950;2024-02-04T02:43:39;5.50;;;4.80;;
64857;SDS011;51335;51.148;6.950;2024-02-04T02:44:10;6.93;;;4.72;;
64857;SDS011;51335;51.148;6.950;2024-02-04T02:44:41;6.85;;;4.90;;
64857;SDS011;51335;51.148;6.950;2024-02-04T02:45:13;7.53;;;4.50;;
64857;SDS011;51335;51.148;6.950;2024-02-04T02:45:45;6.50;;;5.15;;
64857;SDS011;51335;51.148;6.950;2024-02-04T02:46:16;5.53;;;4.75;;
64857;SDS011;51335;51.148;6.950;2024-02-04T02:46:47;6.22;;;4.93;;
64857;SDS011;51335;51.148;6.950;2024-02-04T02:47:17;5.90;;;4.75;;
64857;SDS011;51335;51.148;6.950;2024-02-04T02:47:49;5.38;;;4.80;;
64857;SDS011;51335;51.148;6.950;2024-02-04T02:48:20;6.63;;;5.13;;
64857;SDS011;51335;51.148;6.950;2024-02-04T02:48:51;5.78;;;4.40;;
64857;SDS011;51335;51.148;6.950;2024-02-04T02:49:22;5.82;;;4.88;;
64857;SDS011;51335;51.148;6.950;2024-02-04T02:49:52;5.07;;;4.57;;
64857;SDS011;51335;51.148;6.950;2024-02-04T02:50:23;5.68;;;4.97;;
64857;SDS011;51335;51.148;6.950;2024-02-04T02:50:54;6.95;;;4.57;;
64857;SDS011;51335;51.148;6.950;2024-02-04T02:51:24;5.55;;;4.88;;
64857;SDS011;51335;51.148;6.950;2024-02-04T02:51:54;6.53;;;5.00;;
64857;SDS011;51335;51.148;6.950;2024-02-04T02:52:25;6.00;;;5.40;;
64857;SDS011;51335;51.148;6.950;2024-02-04T02:52:55;6.40;;;5.13;;
64857;SDS011;51335;51.148;6.950;2024-02-04T02:53:25;7.07;;;4.82;;
64857;SDS011;51335;51.148;6.950;2024-02-04T02:53:55;6.43;;;5.18;;
64857;SDS011;51335;51.148;6.950;2024-02-04T02:54:26;6.70;;;5.03;;
64857;SDS011;51335;51.148;6.950;2024-02-04T02:54:56;7.18;;;5.05;;
64857;SDS011;51335;51.148;6.950;2024-02-04T02:55:26;6.32;;;4.90;;
64857;SDS011;51335;51.148;6.950;2024-02-04T02:55:56;7.32;;;4.60;;
64857;SDS011;51335;51.148;6.950;2024-02-04T02:56:27;6.47;;;4.82;;
64857;SDS011;51335;51.148;6.950;2024-02-04T02:56:57;5.78;;;5.18;;
64857;SDS011;51335;51.148;6.950;2024-02-04T02:57:27;5.63;;;4.95;;
64857;SDS011;51335;51.148;6.950;2024-02-04T02:57:57;6.68;;;5.00;;
64857;SDS011;51335;51.148;6.950;2024-02-04T02:58:28;6.13;;;5.13;;
64857;SDS011;51335;51.148;6.950;2024-02-04T02:58:58;5.47;;;4.78;;
64857;SDS011;51335;51.148;6.950;2024-02-04T02:59:28;6.15;;;5.25;;
64857;SDS011;51335;51.148;6.950;2024-02-04T02:59:58;5.82;;;5.20;;
64857;SDS011;51335;51.148;6.950;2024-02-04T03:00:29;6.10;;;4.93;;
64857;SDS011;51335;51.148;6.950;2024-02-04T03:00:59;5.90;;;5.07;;
64857;SDS011;51335;51.148;6.950;2024-02-04T03:01:30;6.43;;;5.03;;
64857;SDS011;51335;51.148;6.950;2024-02-04T03:02:00;7.35;;;5.18;;
64857;SDS011;51335;51.148;6.950;2024-02-04T03:02:30;7.10;;;5.63;;
64857;SDS011;51335;51.148;6.950;2024-02-04T03:03:01;8.82;;;5.40;;
64857;SDS011;51335;51.148;6.950;2024-02-04T03:03:31;7.18;;;5.50;;
64857;SDS011;51335;51.148;6.950;2024-02-04T03:04:01;8.15;;;5.20;;
64857;SDS011;51335;51.148;6.950;2024-02-04T03:04:32;7.18;;;5.38;;
64857;SDS011;51335;51.148;6.950;2024-02-04T03:05:02;6.35;;;5.03;;
64857;SDS011;51335;51.148;6.950;2024-02-04T03:05:32;7.40;;;5.63;;
64857;SDS011;51335;51.148;6.950;2024-02-04T03:06:02;7.53;;;5.90;;
64857;SDS011;51335;51.148;6.950;2024-02-04T03:06:33;8.68;;;5.93;;
64857;SDS011;51335;51.148;6.950;2024-02-04T03:07:03;6.40;;;5.43;;
64857;SDS011;51335;51.148;6.950;2024-02-04T03:07:33;9.15;;;5.53;;
64857;SDS011;51335;51.148;6.950;2024-02-04T03:08:04;7.43;;;5.95;;
64857;SDS011;51335;51.148;6.950;2024-02-04T03:08:34;7.55;;;5.75;;
64857;SDS011;51335;51.148;6.950;2024-02-04T03:09:05;7.32;;;5.50;;
64857;SDS011;51335;51.148;6.950;2024-02-04T03:09:35;7.40;;;5.68;;
64857;SDS011;51335;51.148;6.950;2024-02-04T03:10:05;6.60;;;5.10;;
64857;SDS011;51335;51.148;6.950;2024-02-04T03:10:36;7.57;;;5.55;;
64857;SDS011;51335;51.148;6.950;2024-02-04T03:11:06;6.53;;;5.18;;
64857;SDS011;51335;51.148;6.950;2024-02-04T03:11:36;8.15;;;5.90;;
64857;SDS011;51335;51.148;6.950;2024-02-04T03:12:07;6.75;;;5.15;;
64857;SDS011;51335;51.148;6.950;2024-02-04T03:12:37;6.75;;;5.32;;